메인 페이지
METAR-TAF:

METAR-TAF

공항 :

Massena, 뉴욕, 미국

위도: 44-56-09N, 경도: 074-50-44W, 고도: 66m

현재 날씨관측

예보는 6 시간 9분 전, 04:53시(UTC)에 발표되었습니다.
7kt
온도 -7°C
습도 86%
기압 1013 hPa
시정: 1.2km
약한눈

METAR: KMSS 030453Z AUTO 19007KT 3/4SM -SN VV008 M07/M09 A2991 RMK AO2 SLP139 P0002 T10671094 410671172

시각: 06:02 (11:02 UTC)

예보

예보는 5 시간 27분 전, 05:35시(UTC)에 발표되었습니다.
예보 대상 시간: 03일 06시부터 04일 06시까지 (UTC)
남남서8kt
시정: 3.2km
고도 1800ft 상공 흐림
약한눈, 박무
일시적
03일 06시부터 03일 10시까지 (UTC)
시정: 1.6km
고도 800ft 상공 흐림
약한눈, 박무
03일 1030시부터 (UTC)
서남서8kt
시정: 6.4km
고도 1400ft 상공 구름 많음
약한소낙눈, 박무
03일 1500시부터 (UTC)
서남서6kt
시정: 10km
고도 2000ft 상공 흐림
시계 내 소나기
03일 1800시부터 (UTC)
7kt
시정: 10km
고도 1700ft 상공 구름 많음
04일 0000시부터 (UTC)
북서5kt
시정: 10km
고도 2800ft 상공 구름 많음
04일 0200시부터 (UTC)
북서5kt
시정: 10km
고도 4000ft 상공 구름 많음

TAF: KMSS 030535Z 0306/0406 21008KT 2SM -SN BR OVC018 TEMPO 0306/0310 1SM -SN BR OVC008 FM031030 24008KT 4SM -SHSN BR BKN014 FM031500 25006KT P6SM VCSH OVC020 FM031800 28007KT P6SM BKN017 FM040000 31005KT P6SM BKN028 FM040200 32005KT P6SM BKN040

4,000개 이상의 공항 관측 자료 및 예보 (METAR 및 TAF 보고).

지도상에서 검색 가능한 기상관측소가 노란 점과 빨간 점으로 표시되어 있습니다.

기상관측소 명을 보려면 표시 위로 마우스를 이동하세요.

날씨 관측과 예보를 보려면 클릭하세요.

지도 변경 : 확대하려면 엑스 표시가 있는 녹색 버튼, 축소하려면 빼기 표시가 있는 녹색 버튼, 다음 페이지의 지도를 보려면 녹색 화살표를 클릭하세요.


METAR-TAF: